Time;durP1;ratioP1;P1;durP2;ratioP2;P2;SDS_P1;SDS_P2;PMS_P1;PMS_P2;Temp;Humidity;BMP_temperature;BMP_pressure;BME280_temperature;BME280_humidity;BME280_pressure;Samples;Min_cycle;Max_cycle;Signal;HPM_P1;HPM_P2
2022/05/22 00:01:13;;;;;;;;;2.75;2.50;;;;;13.74;65.62;101969.97;5071417;28;9582;-66
2022/05/22 00:03:40;;;;;;;;;9.25;9.25;;;;;13.70;65.52;101960.56;5049748;28;9669;-66
2022/05/22 00:06:07;;;;;;;;;6.50;5.50;;;;;13.67;65.96;101958.22;5051316;28;9816;-66
2022/05/22 00:08:34;;;;;;;;;8.00;5.00;;;;;13.67;65.72;101955.50;5050104;28;9750;-66
2022/05/22 00:11:00;;;;;;;;;7.00;5.00;;;;;13.63;65.80;101954.22;5051215;28;9966;-66
2022/05/22 00:13:27;;;;;;;;;7.25;5.75;;;;;13.62;65.71;101952.53;5067183;28;9829;-67
2022/05/22 00:18:38;;;;;;;;;7.00;7.00;;;;;13.57;66.20;101942.28;5050802;28;9929;-66
2022/05/22 00:21:05;;;;;;;;;11.25;9.50;;;;;13.57;66.23;101949.53;5051151;28;9745;-67
2022/05/22 00:23:33;;;;;;;;;5.50;5.25;;;;;13.58;66.19;101946.66;5068663;28;9974;-66
2022/05/22 00:25:59;;;;;;;;;5.50;5.50;;;;;13.57;66.10;101933.28;5070784;28;9675;-66
2022/05/22 00:28:26;;;;;;;;;6.75;4.75;;;;;13.55;66.11;101936.19;5052782;28;9660;-65
2022/05/22 00:30:52;;;;;;;;;12.50;9.75;;;;;13.56;66.24;101931.63;5070757;28;9734;-66
2022/05/22 00:33:19;;;;;;;;;7.50;6.75;;;;;13.54;66.38;101928.28;5052912;28;9764;-66
2022/05/22 00:35:46;;;;;;;;;9.00;8.25;;;;;13.53;66.31;101929.28;5045714;28;9979;-67
2022/05/22 00:38:13;;;;;;;;;5.00;5.00;;;;;13.51;66.31;101923.25;5062267;28;10062;-66
2022/05/22 00:40:39;;;;;;;;;6.00;6.00;;;;;13.48;66.46;101916.31;5070545;28;9715;-66
2022/05/22 00:43:05;;;;;;;;;3.00;3.00;;;;;13.46;66.28;101917.56;5055512;28;9690;-66
2022/05/22 00:45:32;;;;;;;;;6.25;5.00;;;;;13.44;66.35;101915.03;5050594;28;9758;-65
2022/05/22 00:47:59;;;;;;;;;5.25;5.25;;;;;13.44;66.72;101914.19;5064157;28;10349;-67
2022/05/22 00:50:25;;;;;;;;;6.00;6.00;;;;;13.43;66.67;101909.81;5066530;28;9736;-67
2022/05/22 00:52:57;;;;;;;;;5.50;5.50;;;;;13.42;66.58;101913.56;5049445;28;9832;-67
2022/05/22 00:55:33;;;;;;;;;6.00;6.00;;;;;13.40;66.63;101916.44;5050426;28;10455;-66
2022/05/22 00:58:07;;;;;;;;;7.00;6.00;;;;;13.40;66.77;101912.88;5063949;28;9727;-66
2022/05/22 01:00:35;;;;;;;;;6.25;5.00;;;;;13.40;66.92;101896.66;5052649;28;9840;-66
2022/05/22 01:03:28;;;;;;;;;5.00;3.50;;;;;13.39;66.93;101885.00;5054844;28;9778;-66
2022/05/22 01:06:08;;;;;;;;;7.50;7.25;;;;;13.39;66.74;101893.13;5048892;28;9762;-66
2022/05/22 01:08:37;;;;;;;;;6.50;6.00;;;;;13.39;66.77;101898.53;5053456;28;9735;-66
2022/05/22 01:11:11;;;;;;;;;3.25;3.25;;;;;13.39;66.97;101893.13;5050210;28;9734;-66
2022/05/22 01:13:42;;;;;;;;;9.50;8.00;;;;;13.38;66.93;101902.25;5046585;28;9675;-66
2022/05/22 01:16:09;;;;;;;;;9.75;9.00;;;;;13.35;66.87;101908.03;5036438;28;9714;-67
2022/05/22 01:18:56;;;;;;;;;10.00;6.00;;;;;13.31;66.61;101907.56;5048999;28;9874;-66
2022/05/22 01:21:33;;;;;;;;;9.75;7.50;;;;;13.31;66.86;101902.16;5050650;28;10034;-66
2022/05/22 01:23:59;;;;;;;;;7.50;6.50;;;;;13.31;67.14;101902.16;5068980;28;9818;-65
2022/05/22 01:26:29;;;;;;;;;6.00;5.00;;;;;13.33;67.28;101910.94;5065407;28;9824;-66
2022/05/22 01:29:14;;;;;;;;;4.50;4.50;;;;;13.35;67.61;101916.16;5050465;28;9760;-66
2022/05/22 01:31:41;;;;;;;;;6.00;5.75;;;;;13.41;67.11;101911.84;5052337;28;9957;-66
2022/05/22 01:34:08;;;;;;;;;9.00;6.75;;;;;13.42;66.98;101919.78;5068942;28;9816;-66
2022/05/22 01:36:35;;;;;;;;;10.00;9.00;;;;;13.43;67.34;101905.25;5065856;28;10850;-66
2022/05/22 01:39:02;;;;;;;;;5.00;5.00;;;;;13.44;67.23;101901.50;5050628;28;9821;-66
2022/05/22 01:41:41;;;;;;;;;8.00;5.75;;;;;13.45;67.25;101894.22;5055423;28;9728;-66
2022/05/22 01:44:07;;;;;;;;;8.00;6.75;;;;;13.43;67.16;101894.41;5073005;28;9743;-67
2022/05/22 01:46:34;;;;;;;;;6.00;6.00;;;;;13.43;67.24;101880.06;5066632;28;10830;-66
2022/05/22 01:49:05;;;;;;;;;11.75;9.25;;;;;13.43;67.32;101874.66;5069413;28;9761;-66
2022/05/22 01:51:35;;;;;;;;;24.75;24.75;;;;;13.41;67.18;101874.84;5055396;28;9993;-66
2022/05/22 01:54:03;;;;;;;;;45.50;40.25;;;;;13.40;67.44;101880.44;5073902;28;10445;-66
2022/05/22 01:56:33;;;;;;;;;45.25;40.00;;;;;13.38;67.29;101880.63;5071567;28;11921;-66
2022/05/22 01:59:03;;;;;;;;;47.50;36.75;;;;;13.36;67.25;101878.09;5052556;28;11071;-66
2022/05/22 02:01:33;;;;;;;;;29.75;29.00;;;;;13.33;67.32;101875.78;5038246;28;11171;-66
2022/05/22 02:04:04;;;;;;;;;40.25;32.00;;;;;13.31;67.42;101867.00;5058218;28;11322;-66
2022/05/22 02:06:35;;;;;;;;;39.00;36.50;;;;;13.29;67.10;101863.66;5053476;28;10745;-66
2022/05/22 02:09:09;;;;;;;;;42.50;37.50;;;;;13.25;67.11;101862.38;5072295;28;11724;-66
2022/05/22 02:11:42;;;;;;;;;36.00;30.50;;;;;13.20;67.26;101867.44;5068516;28;11092;-67
2022/05/22 02:14:14;;;;;;;;;30.50;27.50;;;;;13.17;67.28;101867.00;5052217;28;10597;-66
2022/05/22 02:16:41;;;;;;;;;28.50;21.75;;;;;13.16;67.38;101868.84;5054019;28;11287;-66
2022/05/22 02:19:10;;;;;;;;;27.75;26.75;;;;;13.14;67.52;101864.66;5047289;28;10692;-67
2022/05/22 02:21:36;;;;;;;;;32.75;30.50;;;;;13.12;67.64;101872.94;5070895;28;10685;-65
2022/05/22 02:24:03;;;;;;;;;34.00;31.25;;;;;13.09;67.55;101867.91;5072288;28;10655;-65
2022/05/22 02:26:30;;;;;;;;;33.25;30.25;;;;;13.08;67.72;101871.63;5070078;28;10819;-66
2022/05/22 02:28:57;;;;;;;;;33.50;30.25;;;;;13.07;67.73;101867.25;5068403;28;10731;-66
2022/05/22 02:31:23;;;;;;;;;36.25;31.25;;;;;13.05;67.94;101862.03;5069146;28;10727;-66
2022/05/22 02:33:53;;;;;;;;;31.50;29.25;;;;;13.05;67.83;101862.03;5072065;28;10570;-66
2022/05/22 02:36:20;;;;;;;;;35.00;29.75;;;;;13.02;67.62;101857.00;5070884;28;10722;-65
2022/05/22 02:38:51;;;;;;;;;32.00;29.00;;;;;12.99;67.69;101853.81;5071280;28;11266;-66
2022/05/22 02:41:20;;;;;;;;;26.00;23.75;;;;;12.95;67.53;101852.50;5071388;28;10716;-66
2022/05/22 02:43:54;;;;;;;;;32.00;32.00;;;;;12.91;67.55;101852.03;5048727;28;10715;-66
2022/05/22 02:46:22;;;;;;;;;36.25;31.75;;;;;12.86;67.46;101855.31;5051686;28;10803;-66
2022/05/22 02:48:51;;;;;;;;;34.25;32.25;;;;;12.83;67.78;101846.72;5071430;28;10805;-65
2022/05/22 02:51:23;;;;;;;;;32.00;27.50;;;;;12.81;67.73;101844.22;5070124;28;10844;-66
2022/05/22 02:53:54;;;;;;;;;34.25;30.50;;;;;12.78;67.75;101836.47;5051558;28;10481;-67
2022/05/22 02:56:37;;;;;;;;;32.75;29.75;;;;;12.77;67.87;101842.91;5053529;28;10661;-66
2022/05/22 02:59:04;;;;;;;;;36.50;33.50;;;;;12.79;68.13;101848.13;5072675;28;10823;-66
2022/05/22 03:01:42;;;;;;;;;31.75;28.25;;;;;12.78;68.03;101846.44;5061818;28;11052;-65
2022/05/22 03:04:08;;;;;;;;;28.75;27.25;;;;;12.78;67.93;101836.47;5050924;28;10915;-66
2022/05/22 03:06:38;;;;;;;;;30.75;27.50;;;;;12.79;68.00;101831.91;5054185;28;11627;-66
2022/05/22 03:09:07;;;;;;;;;31.00;25.50;;;;;12.77;68.05;101837.50;5071199;28;10726;-65
2022/05/22 03:11:37;;;;;;;;;26.75;26.75;;;;;12.76;68.06;101827.72;5069507;28;10862;-66
2022/05/22 03:14:05;;;;;;;;;27.25;23.75;;;;;12.76;68.21;101825.03;5071065;28;10832;-65
2022/05/22 03:16:32;;;;;;;;;25.00;23.00;;;;;12.76;68.26;101832.25;5069970;28;10639;-66
2022/05/22 03:19:15;;;;;;;;;24.50;21.75;;;;;12.73;67.92;101832.66;5051089;28;10547;-65
2022/05/22 03:21:42;;;;;;;;;24.25;21.00;;;;;12.71;68.44;101830.13;5070833;28;10353;-65
2022/05/22 03:24:10;;;;;;;;;26.75;23.00;;;;;12.69;68.04;101825.94;5070917;28;10489;-66
2022/05/22 03:26:43;;;;;;;;;20.00;19.00;;;;;12.68;68.28;101835.03;5061687;28;10480;-66
2022/05/22 03:29:11;;;;;;;;;17.25;16.00;;;;;12.66;67.91;101839.81;5050781;28;10299;-66
2022/05/22 03:31:37;;;;;;;;;15.75;14.75;;;;;12.65;68.34;101836.28;5053163;28;10249;-66
2022/05/22 03:34:04;;;;;;;;;14.75;13.75;;;;;12.62;68.23;101828.53;5070727;28;11015;-66
2022/05/22 03:36:33;;;;;;;;;15.25;11.75;;;;;12.60;68.58;101830.59;5051812;28;10062;-66
2022/05/22 03:38:59;;;;;;;;;14.50;12.75;;;;;12.59;68.60;101828.88;5050569;28;10256;-65
2022/05/22 03:41:26;;;;;;;;;13.25;12.00;;;;;12.59;68.66;101820.78;5051584;28;11020;-66
2022/05/22 03:43:53;;;;;;;;;9.25;9.25;;;;;12.61;68.62;101819.59;5054801;28;10334;-66
2022/05/22 03:46:40;;;;;;;;;13.50;12.75;;;;;12.61;68.88;101819.59;5054066;28;10299;-66
2022/05/22 03:49:07;;;;;;;;;9.50;8.25;;;;;12.65;68.68;101819.22;5070620;28;10216;-65
2022/05/22 03:51:37;;;;;;;;;10.25;8.00;;;;;12.66;68.68;101819.03;5067996;28;10148;-66
2022/05/22 03:54:07;;;;;;;;;9.25;7.75;;;;;12.65;68.63;101820.06;5050354;28;11052;-66
2022/05/22 03:56:40;;;;;;;;;13.00;11.00;;;;;12.62;68.72;101809.63;5052311;28;10165;-66
2022/05/22 03:59:30;;;;;;;;;10.50;7.50;;;;;12.60;68.46;101803.59;5065683;28;10051;-66
2022/05/22 04:01:56;;;;;;;;;7.00;7.00;;;;;12.59;68.78;101793.78;5054331;28;10165;-66
2022/05/22 04:04:23;;;;;;;;;10.00;10.00;;;;;12.60;68.99;101803.59;5069998;28;10882;-66
2022/05/22 04:06:50;;;;;;;;;7.75;7.00;;;;;12.61;69.01;101802.56;5065062;28;10257;-65
2022/05/22 04:09:22;;;;;;;;;11.00;10.50;;;;;12.61;68.87;101806.09;5050110;28;10101;-66
2022/05/22 04:12:13;;;;;;;;;11.25;9.00;;;;;12.60;68.98;101800.88;5047793;28;10100;-66
2022/05/22 04:14:42;;;;;;;;;8.25;7.00;;;;;12.59;68.82;101805.41;5030067;28;10882;-66
2022/05/22 04:17:10;;;;;;;;;9.50;9.00;;;;;12.60;69.11;101803.59;5046561;28;10082;-65
2022/05/22 04:19:38;;;;;;;;;11.00;10.50;;;;;12.59;68.96;101801.88;5065319;28;9994;-66
2022/05/22 04:22:06;;;;;;;;;9.50;6.00;;;;;12.57;68.80;101793.13;5049857;28;10215;-66
2022/05/22 04:27:22;;;;;;;;;6.50;6.50;;;;;12.59;68.78;101800.00;5074852;28;10855;-66
2022/05/22 04:29:50;;;;;;;;;10.25;7.00;;;;;12.61;69.19;101797.97;5069552;28;9889;-66
2022/05/22 04:32:18;;;;;;;;;6.00;6.00;;;;;12.61;68.91;101797.16;5060512;28;10974;-66
2022/05/22 04:34:48;;;;;;;;;8.50;7.75;;;;;12.65;69.15;101800.31;5049129;28;10723;-65
2022/05/22 04:37:16;;;;;;;;;5.00;4.75;;;;;12.64;69.04;101794.09;5049373;28;10100;-66
2022/05/22 04:39:45;;;;;;;;;6.75;6.75;;;;;12.67;69.42;101790.16;5049590;28;9833;-66
2022/05/22 04:42:13;;;;;;;;;6.25;6.25;;;;;12.67;69.43;101793.69;5056848;28;10058;-66
2022/05/22 04:44:41;;;;;;;;;7.50;6.75;;;;;12.70;69.32;101795.19;5069322;28;9977;-66
2022/05/22 04:47:26;;;;;;;;;6.50;6.50;;;;;12.71;69.56;101795.00;5060800;28;10081;-66
2022/05/22 04:50:13;;;;;;;;;5.25;4.50;;;;;12.76;69.38;101789.03;5050102;28;10729;-66
2022/05/22 04:52:59;;;;;;;;;9.25;6.50;;;;;12.83;69.57;101789.97;5051761;28;10049;-66
2022/05/22 04:55:26;;;;;;;;;10.00;8.00;;;;;12.87;69.39;101791.28;5029841;28;10017;-65
2022/05/22 04:57:53;;;;;;;;;9.75;8.50;;;;;12.92;69.36;101788.03;5055461;28;9965;-66
2022/05/22 05:00:20;;;;;;;;;8.25;5.50;;;;;12.96;69.55;101783.91;5068735;28;9996;-65
2022/05/22 05:03:03;;;;;;;;;8.00;6.25;;;;;13.01;69.62;101786.94;5054032;28;9980;-66
2022/05/22 05:05:30;;;;;;;;;6.50;3.75;;;;;13.05;69.37;101789.06;5065485;28;9913;-65
2022/05/22 05:07:57;;;;;;;;;4.25;4.25;;;;;13.11;69.20;101787.47;5047481;28;9941;-65
2022/05/22 05:11:04;;;;;;;;;5.00;5.00;;;;;13.15;69.04;101786.06;5048994;28;9742;-65
2022/05/22 05:13:37;;;;;;;;;8.75;7.75;;;;;13.17;69.34;101791.28;5028837;28;9847;-66
2022/05/22 05:16:15;;;;;;;;;6.25;5.00;;;;;13.21;69.33;101806.94;5029592;28;10028;-65
2022/05/22 05:18:52;;;;;;;;;5.00;5.00;;;;;13.27;69.50;101802.69;5028951;28;10651;-67
2022/05/22 05:21:20;;;;;;;;;5.75;4.00;;;;;13.32;69.49;101797.53;5029417;28;9926;-65
2022/05/22 05:23:50;;;;;;;;;5.00;3.50;;;;;13.35;69.33;101781.78;5044668;28;9833;-65
2022/05/22 05:26:20;;;;;;;;;3.50;3.50;;;;;13.42;69.43;101792.69;5029259;28;9773;-66
2022/05/22 05:28:48;;;;;;;;;6.25;6.00;;;;;13.47;69.32;101792.94;5061014;28;9653;-66
2022/05/22 05:31:35;;;;;;;;;7.50;7.50;;;;;13.61;69.65;101793.91;5051788;28;10486;-66
2022/05/22 05:34:08;;;;;;;;;6.00;6.00;;;;;13.77;69.44;101801.81;5064508;28;9714;-67
2022/05/22 05:36:49;;;;;;;;;8.00;6.00;;;;;13.97;69.27;101793.88;5048424;28;9758;-66
2022/05/22 05:39:27;;;;;;;;;5.00;5.00;;;;;14.16;68.38;101799.69;5049999;28;10094;-66
2022/05/22 05:42:12;;;;;;;;;4.00;4.00;;;;;14.32;68.07;101796.72;5055398;28;9603;-67
2022/05/22 05:44:39;;;;;;;;;7.75;4.50;;;;;14.48;67.64;101796.44;5051064;28;9517;-66
2022/05/22 05:47:27;;;;;;;;;6.00;5.75;;;;;14.67;66.65;101794.09;5058891;28;9792;-66
2022/05/22 05:50:19;;;;;;;;;5.75;4.50;;;;;14.82;65.97;101798.34;5065192;28;9442;-67
2022/05/22 05:53:08;;;;;;;;;5.00;5.00;;;;;14.96;65.72;101793.88;5044914;28;9379;-67
2022/05/22 05:55:44;;;;;;;;;4.00;4.00;;;;;15.08;64.98;101796.84;5060586;28;9410;-66
2022/05/22 05:58:42;;;;;;;;;7.00;4.33;;;;;15.22;64.63;101797.75;5048504;28;9298;-66
2022/05/22 06:01:16;;;;;;;;;7.75;6.00;;;;;15.29;64.28;101798.63;5048425;28;9287;-66
2022/05/22 06:03:43;;;;;;;;;5.67;5.00;;;;;15.33;63.59;101794.47;5067580;28;9446;-67
2022/05/22 06:06:11;;;;;;;;;4.67;4.67;;;;;15.37;63.75;101793.00;5066037;28;9460;-66
2022/05/22 06:08:39;;;;;;;;;5.33;5.33;;;;;15.42;63.51;101797.81;5046839;28;9371;-67
2022/05/22 06:11:24;;;;;;;;;6.00;5.33;;;;;15.47;62.92;101798.03;5047984;28;9442;-67
2022/05/22 06:13:54;;;;;;;;;6.00;6.00;;;;;15.49;63.11;101794.09;5068225;28;9290;-66
2022/05/22 06:16:21;;;;;;;;;6.67;4.33;;;;;15.52;62.66;101787.44;5067329;28;9888;-67
2022/05/22 06:19:00;;;;;;;;;4.33;4.00;;;;;15.51;62.76;101791.16;5048149;28;9169;-66
2022/05/22 06:21:27;;;;;;;;;4.33;4.00;;;;;15.51;62.60;101786.56;5049477;28;9345;-66
2022/05/22 06:23:54;;;;;;;;;8.00;4.00;;;;;15.53;62.38;101786.41;5063873;28;9163;-67
2022/05/22 06:26:39;;;;;;;;;5.67;4.33;;;;;15.51;62.42;101785.75;5052315;28;9333;-66
2022/05/22 06:29:32;;;;;;;;;3.67;2.67;;;;;15.49;62.41;101790.56;5053108;28;10139;-66
2022/05/22 06:32:28;;;;;;;;;3.00;3.00;;;;;15.50;62.37;101794.94;5052810;28;9236;-66
2022/05/22 06:35:15;;;;;;;;;5.33;5.00;;;;;15.52;62.32;101788.28;5072998;28;9217;-67
2022/05/22 06:37:49;;;;;;;;;1.00;1.00;;;;;15.51;62.11;101789.28;5067978;28;10134;-67
2022/05/22 06:40:38;;;;;;;;;3.00;3.00;;;;;15.51;61.93;101792.00;5031915;28;9063;-67
2022/05/22 06:43:23;;;;;;;;;3.67;3.67;;;;;15.52;62.51;101788.28;5070326;28;9169;-64
2022/05/22 06:46:30;;;;;;;;;5.00;5.00;;;;;15.45;61.48;101784.69;5071324;28;9475;-66
2022/05/22 06:49:15;;;;;;;;;5.00;3.00;;;;;15.44;61.79;101790.34;5071440;28;9285;-66
2022/05/22 06:51:59;;;;;;;;;6.00;2.67;;;;;15.46;61.52;101783.66;5065424;28;9327;-66
2022/05/22 06:54:42;;;;;;;;;8.00;3.00;;;;;15.48;61.12;101778.03;5032608;28;9221;-66
2022/05/22 06:57:23;;;;;;;;;6.00;3.00;;;;;15.47;61.42;101782.59;5049415;28;9246;-66
2022/05/22 07:00:19;;;;;;;;;4.33;4.33;;;;;15.42;60.68;101785.09;5052494;28;9307;-66
2022/05/22 07:02:47;;;;;;;;;6.75;6.75;;;;;15.41;60.50;101793.44;5060591;28;9336;-66
2022/05/22 07:05:42;;;;;;;;;3.67;3.67;;;;;15.41;60.53;101799.72;5052399;28;9373;-66
2022/05/22 07:08:47;;;;;;;;;3.67;3.00;;;;;15.44;60.75;101795.75;5045638;28;9322;-66
2022/05/22 07:11:54;;;;;;;;;5.33;5.33;;;;;15.43;60.50;101794.91;5050947;28;9354;-66
2022/05/22 07:14:39;;;;;;;;;4.00;4.00;;;;;15.47;60.20;101790.75;5052484;28;9407;-66
2022/05/22 07:17:24;;;;;;;;;2.33;2.33;;;;;15.54;59.97;101797.03;5051196;28;9300;-66
2022/05/22 07:19:55;;;;;;;;;6.00;3.00;;;;;15.59;60.21;101797.25;5051177;28;9359;-66
2022/05/22 07:22:42;;;;;;;;;1.00;1.00;;;;;15.60;58.70;101800.81;5060412;28;9316;-66
2022/05/22 07:25:18;;;;;;;;;3.00;2.00;;;;;15.62;58.19;101796.00;5052113;28;9106;-66
2022/05/22 07:28:02;;;;;;;;;3.00;2.00;;;;;15.68;58.69;101800.69;5047513;28;9819;-66
2022/05/22 07:30:51;;;;;;;;;6.00;2.67;;;;;15.73;59.10;101794.63;5030921;28;9212;-66
2022/05/22 07:33:33;;;;;;;;;3.00;3.00;;;;;15.78;58.85;101790.25;5067689;28;9849;-66
2022/05/22 07:36:16;;;;;;;;;6.33;4.67;;;;;15.79;59.04;101791.91;5069755;28;9267;-66
2022/05/22 07:38:45;;;;;;;;;2.00;1.00;;;;;15.82;58.60;101790.66;5031660;28;9231;-66
2022/05/22 07:41:20;;;;;;;;;3.00;3.00;;;;;15.88;58.90;101789.88;5032806;28;9049;-66
2022/05/22 07:44:25;;;;;;;;;5.00;3.00;;;;;15.92;59.24;101787.53;5009813;28;9064;-66
2022/05/22 07:47:04;;;;;;;;;2.00;2.00;;;;;15.95;59.47;101795.28;4992445;28;9175;-66
2022/05/22 07:52:55;;;;;;;;;4.33;4.33;;;;;16.06;59.61;101787.38;5057726;28;9158;-66
2022/05/22 07:55:28;;;;;;;;;3.67;3.67;;;;;16.08;58.97;101787.16;5051773;28;9138;-66
2022/05/22 07:58:16;;;;;;;;;3.33;3.00;;;;;16.12;58.62;101788.41;5066437;28;9078;-66
2022/05/22 08:01:11;;;;;;;;;1.00;1.00;;;;;16.15;58.78;101782.56;5031444;28;9770;-66
2022/05/22 08:03:56;;;;;;;;;2.00;2.00;;;;;16.19;58.16;101782.97;5051327;28;9040;-66
2022/05/22 08:06:41;;;;;;;;;5.00;3.00;;;;;16.22;57.66;101783.41;5053874;28;8985;-66
2022/05/22 08:09:27;;;;;;;;;4.00;3.00;;;;;16.23;57.56;101778.81;5070987;28;9091;-66
2022/05/22 08:11:54;;;;;;;;;2.00;2.00;;;;;16.29;57.71;101778.81;5059068;28;9049;-66
2022/05/22 08:14:21;;;;;;;;;3.00;3.00;;;;;16.34;58.13;101775.47;5049747;28;9013;-66
2022/05/22 08:16:48;;;;;;;;;2.00;2.00;;;;;16.38;57.51;101768.56;5053456;28;9799;-66
2022/05/22 08:19:16;;;;;;;;;2.00;2.00;;;;;16.47;57.87;101763.75;5069802;28;8925;-66
2022/05/22 08:22:09;;;;;;;;;1.00;1.00;;;;;16.46;56.93;101764.81;5062340;28;8991;-66
2022/05/22 08:24:55;;;;;;;;;1.33;1.33;;;;;16.53;56.93;101757.50;5051060;28;8829;-66
2022/05/22 08:27:24;;;;;;;;;3.00;3.00;;;;;16.52;55.94;101755.78;5057970;28;8983;-66
2022/05/22 08:29:51;;;;;;;;;2.67;2.67;;;;;16.54;55.97;101753.72;5070892;28;8884;-66
2022/05/22 08:32:22;;;;;;;;;3.00;1.25;;;;;16.59;55.56;101748.47;5060885;28;9001;-66
2022/05/22 08:34:52;;;;;;;;;2.00;2.00;;;;;16.64;55.48;101743.22;5050789;28;8922;-67
2022/05/22 08:37:18;;;;;;;;;4.00;4.00;;;;;16.63;54.93;101735.28;5058248;28;9022;-66
2022/05/22 08:39:45;;;;;;;;;1.00;1.00;;;;;16.64;54.29;101734.25;5066432;28;8846;-66
2022/05/22 08:42:19;;;;;;;;;1.00;1.00;;;;;16.66;53.50;101733.00;5058066;28;8902;-66
2022/05/22 08:44:51;;;;;;;;;2.00;1.75;;;;;16.69;53.48;101735.28;5070567;28;8799;-66
2022/05/22 08:47:22;;;;;;;;;2.00;2.00;;;;;16.80;54.53;101739.25;5062207;28;8909;-66
2022/05/22 08:49:57;;;;;;;;;3.00;1.50;;;;;16.87;54.70;101731.06;5050371;28;8826;-66
2022/05/22 08:52:47;;;;;;;;;1.00;1.00;;;;;16.90;54.40;101719.78;5059281;28;8843;-66
2022/05/22 08:59:07;;;;;;;;;3.00;1.00;;;;;17.02;52.86;101712.63;5050185;28;8867;-66
2022/05/22 09:01:40;;;;;;;;;2.25;2.25;;;;;17.15;53.54;101717.16;5052366;28;8826;-66
2022/05/22 09:04:12;;;;;;;;;1.00;1.00;;;;;17.27;54.43;101712.69;5070438;28;9541;-66
2022/05/22 09:07:06;;;;;;;;;1.75;1.75;;;;;17.34;52.76;101708.06;5066882;28;8853;-66
2022/05/22 09:09:36;;;;;;;;;2.00;2.00;;;;;17.39;53.42;101707.41;5050035;28;8806;-66
2022/05/22 09:12:21;;;;;;;;;2.25;2.25;;;;;17.44;53.21;101708.41;5056550;28;8820;-66
2022/05/22 09:15:14;;;;;;;;;4.25;2.75;;;;;17.54;53.25;101695.16;5070167;28;8830;-66
2022/05/22 09:18:09;;;;;;;;;2.50;2.00;;;;;17.57;52.53;101691.16;5057877;28;8907;-66
2022/05/22 09:20:47;;;;;;;;;1.50;1.50;;;;;17.61;51.51;101684.22;5038692;28;8830;-66
2022/05/22 09:23:22;;;;;;;;;1.25;1.00;;;;;17.66;51.40;101680.81;5066225;28;8827;-67
2022/05/22 09:26:06;;;;;;;;;1.00;1.00;;;;;17.74;51.47;101681.44;5070079;28;8878;-67
2022/05/22 09:29:01;;;;;;;;;2.00;2.00;;;;;17.77;49.35;101675.53;5051034;28;8891;-66
2022/05/22 09:31:47;;;;;;;;;2.00;2.00;;;;;17.76;48.55;101676.59;5049924;28;8837;-67
2022/05/22 09:34:32;;;;;;;;;1.50;1.50;;;;;17.83;48.65;101671.13;5050174;28;9536;-66
2022/05/22 09:37:09;;;;;;;;;1.50;0.00;;;;;17.97;48.48;101664.47;5055511;28;8839;-66
2022/05/22 09:40:05;;;;;;;;;0.75;0.00;;;;;18.04;47.32;101667.97;5070125;28;8803;-66
2022/05/22 09:42:54;;;;;;;;;0.00;0.00;;;;;18.05;45.77;101668.81;5059340;28;9649;-66
2022/05/22 09:45:59;;;;;;;;;4.00;1.00;;;;;18.10;47.36;101659.97;5049282;28;8821;-66
2022/05/22 09:48:41;;;;;;;;;1.00;1.00;;;;;18.19;47.48;101661.34;5062075;28;8841;-66
2022/05/22 09:51:24;;;;;;;;;0.25;0.25;;;;;18.27;47.58;101666.50;5048404;28;8833;-66
2022/05/22 09:54:22;;;;;;;;;0.75;0.75;;;;;18.31;47.38;101658.69;5029983;28;8886;-66
2022/05/22 09:57:47;;;;;;;;;2.00;2.00;;;;;18.33;47.07;101657.44;5042944;28;8871;-66
2022/05/22 10:00:18;;;;;;;;;2.00;2.00;;;;;18.31;47.50;101651.38;5070764;28;8795;-66
2022/05/22 10:02:57;;;;;;;;;2.25;1.25;;;;;18.35;47.06;101658.06;5059388;28;8822;-67
2022/05/22 10:05:30;;;;;;;;;1.00;1.00;;;;;18.43;47.06;101651.44;5053348;28;8822;-66
2022/05/22 10:08:19;;;;;;;;;4.00;2.00;;;;;18.40;47.64;101655.47;5066740;28;9545;-67
2022/05/22 10:11:15;;;;;;;;;1.25;1.00;;;;;18.44;47.97;101639.50;5073816;28;8815;-67
2022/05/22 10:14:33;;;;;;;;;1.00;1.00;;;;;18.53;48.34;101646.31;5043336;28;8927;-66
2022/05/22 10:17:22;;;;;;;;;0.50;0.25;;;;;18.59;47.92;101637.19;5035659;28;8842;-66
2022/05/22 10:19:55;;;;;;;;;1.00;1.00;;;;;18.68;48.07;101645.94;5052880;28;8895;-67
2022/05/22 10:22:51;;;;;;;;;2.00;2.00;;;;;18.70;48.38;101633.75;5052197;28;8901;-66
2022/05/22 10:25:36;;;;;;;;;1.25;1.00;;;;;18.67;48.04;101625.97;5053214;28;8927;-66
2022/05/22 10:28:13;;;;;;;;;3.50;2.00;;;;;18.69;47.01;101626.59;5067215;28;8823;-66
2022/05/22 10:30:47;;;;;;;;;1.00;1.00;;;;;18.66;47.11;101639.84;5073467;28;8811;-66
2022/05/22 10:33:29;;;;;;;;;0.25;0.25;;;;;18.74;46.49;101632.22;5053628;28;8892;-66
2022/05/22 10:36:09;;;;;;;;;2.00;2.00;;;;;18.81;46.73;101629.41;5053043;28;8894;-66
2022/05/22 10:39:00;;;;;;;;;1.75;1.00;;;;;18.84;46.04;101622.66;5071451;28;8834;-66
2022/05/22 10:44:22;;;;;;;;;1.25;1.25;;;;;18.79;45.58;101623.34;5052859;28;8841;-66
2022/05/22 10:46:52;;;;;;;;;1.00;1.00;;;;;18.78;45.56;101614.34;5055090;28;8843;-66
2022/05/22 10:49:23;;;;;;;;;1.00;1.00;;;;;18.81;45.47;101615.78;5072995;28;8887;-66
2022/05/22 10:52:01;;;;;;;;;5.25;2.25;;;;;18.85;45.64;101599.78;5068278;28;8838;-66
2022/05/22 10:54:31;;;;;;;;;1.00;1.00;;;;;18.92;46.84;101595.91;5052285;28;8964;-66
2022/05/22 10:57:13;;;;;;;;;1.25;1.00;;;;;18.98;46.82;101594.97;5057728;28;8912;-66
2022/05/22 10:59:40;;;;;;;;;0.25;0.25;;;;;19.03;45.59;101584.19;5071471;28;8823;-66
2022/05/22 11:02:21;;;;;;;;;2.00;2.00;;;;;19.12;45.28;101598.34;5071872;28;8827;-66
2022/05/22 11:04:49;;;;;;;;;1.00;1.00;;;;;19.21;45.91;101602.41;5072629;28;8946;-66
2022/05/22 11:07:28;;;;;;;;;1.50;1.50;;;;;19.31;45.51;101601.00;5063957;28;8841;-66
2022/05/22 11:10:04;;;;;;;;;2.50;1.00;;;;;19.38;45.75;101591.66;5054304;28;8850;-66
2022/05/22 11:12:31;;;;;;;;;1.00;1.00;;;;;19.43;45.10;101583.56;5080349;28;8929;-66
2022/05/22 11:15:15;;;;;;;;;0.75;0.75;;;;;19.48;44.74;101591.88;5092882;28;8887;-66
2022/05/22 11:17:42;;;;;;;;;1.25;1.25;;;;;19.54;45.54;101592.03;5062256;28;8832;-66
2022/05/22 11:20:14;;;;;;;;;2.00;2.00;;;;;19.58;46.14;101580.41;5071971;28;8897;-67
2022/05/22 11:23:08;;;;;;;;;2.00;2.00;;;;;19.58;44.64;101565.91;5083578;28;9657;-67
2022/05/22 11:26:08;;;;;;;;;2.00;1.25;;;;;19.66;45.27;101563.69;5051879;28;8843;-67
2022/05/22 11:29:08;;;;;;;;;2.25;1.75;;;;;19.63;45.51;101566.06;5088968;28;8814;-66
2022/05/22 11:31:35;;;;;;;;;1.25;1.25;;;;;19.68;45.67;101558.81;5089280;28;8850;-66
2022/05/22 11:34:35;;;;;;;;;1.00;1.00;;;;;19.82;45.67;101550.38;5070421;28;8856;-66
2022/05/22 11:37:20;;;;;;;;;2.00;2.00;;;;;19.91;45.43;101543.47;5077342;28;8932;-67
2022/05/22 11:40:02;;;;;;;;;1.50;1.25;;;;;19.95;45.01;101547.41;5092128;28;8811;-66
2022/05/22 11:42:39;;;;;;;;;3.50;3.50;;;;;20.02;44.33;101547.28;5081090;28;8841;-67
2022/05/22 11:45:32;;;;;;;;;2.00;2.00;;;;;20.00;43.84;101540.13;5051691;28;8841;-67
2022/05/22 11:48:16;;;;;;;;;2.25;2.25;;;;;20.00;43.16;101542.03;5080384;28;8814;-67
2022/05/22 11:51:07;;;;;;;;;1.00;1.00;;;;;19.98;44.60;101531.38;5091844;28;8835;-67
2022/05/22 11:53:57;;;;;;;;;2.75;2.00;;;;;19.99;45.27;101538.47;5072050;28;8817;-67
2022/05/22 11:56:59;;;;;;;;;2.00;2.00;;;;;20.07;44.75;101537.28;5071947;28;8821;-66
2022/05/22 11:59:51;;;;;;;;;2.00;2.00;;;;;20.18;44.40;101525.50;5091634;28;8815;-66
2022/05/22 12:02:44;;;;;;;;;2.50;2.50;;;;;20.25;44.23;101528.94;5082768;28;8906;-66
2022/05/22 12:05:44;;;;;;;;;1.00;1.00;;;;;20.27;43.26;101525.13;5070926;28;8848;-67
2022/05/22 12:08:28;;;;;;;;;1.25;1.25;;;;;20.25;43.63;101525.34;5086440;28;8904;-67
2022/05/22 12:11:06;;;;;;;;;2.50;2.50;;;;;20.09;43.66;101516.00;5091336;28;8875;-67
2022/05/22 12:13:44;;;;;;;;;3.00;2.33;;;;;19.96;44.64;101527.19;5054093;28;8910;-66
2022/05/22 12:16:19;;;;;;;;;2.25;2.25;;;;;19.85;44.19;101520.69;5071233;28;8821;-67
2022/05/22 12:19:15;;;;;;;;;3.25;3.25;;;;;19.96;45.67;101513.53;5050428;28;8823;-67
2022/05/22 12:22:13;;;;;;;;;1.00;1.00;;;;;19.98;44.74;101505.94;5057812;28;8837;-67
2022/05/22 12:24:48;;;;;;;;;2.75;2.75;;;;;19.86;44.25;101508.69;5090732;28;8834;-67
2022/05/22 12:27:22;;;;;;;;;2.75;2.00;;;;;19.83;44.89;101505.59;5080409;28;8841;-67